Time;durP1;ratioP1;P1;durP2;ratioP2;P2;SDS_P1;SDS_P2;PMS_P1;PMS_P2;Temp;Humidity;BMP_temperature;BMP_pressure;BME280_temperature;BME280_humidity;BME280_pressure;Samples;Min_cycle;Max_cycle;Signal;HPM_P1;HPM_P2
2022/03/05 00:00:33;;;;;;;42.58;18.70;;;-0.20;99.90;;;;;;4341187;28;10021596;-68
2022/03/05 00:03:00;;;;;;;48.70;20.55;;;-0.20;99.90;;;;;;5025212;28;20037;-67
2022/03/05 00:05:26;;;;;;;46.97;21.08;;;-0.20;99.90;;;;;;5020030;28;20478;-67
2022/03/05 00:07:51;;;;;;;45.33;21.08;;;-0.20;99.90;;;;;;5012717;28;20041;-67
2022/03/05 00:10:19;;;;;;;49.17;20.88;;;-0.20;99.90;;;;;;5010934;28;20034;-67
2022/03/05 00:12:45;;;;;;;46.10;20.48;;;-0.20;99.90;;;;;;5012759;28;20551;-68
2022/03/05 00:15:11;;;;;;;50.47;21.75;;;-0.10;99.90;;;;;;5005644;28;20022;-67
2022/03/05 00:17:37;;;;;;;44.08;20.52;;;-0.10;99.90;;;;;;5014197;28;20124;-67
2022/03/05 00:20:04;;;;;;;45.35;19.48;;;-0.20;99.90;;;;;;5017274;28;20508;-68
2022/03/05 00:22:30;;;;;;;46.88;19.58;;;-0.20;99.90;;;;;;5015634;28;20041;-67
2022/03/05 00:24:56;;;;;;;43.70;18.80;;;-0.20;99.90;;;;;;5010853;28;20040;-68
2022/03/05 00:27:21;;;;;;;42.38;19.02;;;-0.30;99.90;;;;;;5016263;28;20344;-68
2022/03/05 00:29:47;;;;;;;46.90;21.20;;;-0.40;99.90;;;;;;5018709;28;20091;-68
2022/03/05 00:32:13;;;;;;;48.78;21.05;;;-0.40;99.90;;;;;;5010767;28;20037;-67
2022/03/05 00:34:38;;;;;;;51.08;21.30;;;-0.30;99.90;;;;;;5042528;28;20036;-68
2022/03/05 00:37:05;;;;;;;48.45;20.73;;;-0.30;99.90;;;;;;5044546;28;20032;-68
2022/03/05 00:39:31;;;;;;;44.05;19.60;;;-0.30;99.90;;;;;;5045093;28;20447;-68
2022/03/05 00:41:57;;;;;;;43.80;19.88;;;-0.30;99.90;;;;;;5045983;28;20039;-68
2022/03/05 00:44:23;;;;;;;44.22;19.88;;;-0.40;99.90;;;;;;5039741;28;20054;-68
2022/03/05 00:46:48;;;;;;;47.90;20.55;;;-0.40;99.90;;;;;;5044636;28;20059;-68
2022/03/05 00:49:14;;;;;;;43.95;19.73;;;-0.40;99.90;;;;;;5038253;28;20028;-67
2022/03/05 00:51:40;;;;;;;42.08;18.80;;;-0.40;99.90;;;;;;5040831;28;20029;-68
2022/03/05 00:54:05;;;;;;;39.47;18.75;;;-0.40;99.90;;;;;;5040173;28;20029;-68
2022/03/05 00:56:31;;;;;;;42.00;19.60;;;-0.40;99.90;;;;;;5038850;28;20026;-68
2022/03/05 00:58:57;;;;;;;41.80;19.83;;;-0.40;99.90;;;;;;5042735;28;20112;-68
2022/03/05 01:01:23;;;;;;;44.42;19.88;;;-0.50;99.90;;;;;;5039447;28;20461;-68
2022/03/05 01:03:48;;;;;;;48.72;20.55;;;-0.50;99.90;;;;;;5043632;28;20590;-67
2022/03/05 01:06:14;;;;;;;48.92;22.15;;;-0.40;99.90;;;;;;5045000;28;20044;-67
2022/03/05 01:08:40;;;;;;;45.08;20.35;;;-0.40;99.90;;;;;;5046533;28;20098;-67
2022/03/05 01:11:07;;;;;;;44.28;20.70;;;-0.30;99.90;;;;;;5044480;28;20085;-68
2022/03/05 01:13:32;;;;;;;42.60;18.48;;;-0.30;99.90;;;;;;5043253;28;20090;-68
2022/03/05 01:15:58;;;;;;;41.85;20.15;;;-0.30;99.90;;;;;;5039933;28;20021;-67
2022/03/05 01:18:23;;;;;;;45.60;21.08;;;-0.30;99.90;;;;;;5038958;28;20647;-68
2022/03/05 01:20:49;;;;;;;43.65;19.38;;;-0.30;99.90;;;;;;5047075;28;20029;-68
2022/03/05 01:23:14;;;;;;;40.17;19.63;;;-0.40;99.90;;;;;;5038615;28;20071;-68
2022/03/05 01:25:40;;;;;;;44.85;20.38;;;-0.50;99.90;;;;;;5036222;28;21236;-68
2022/03/05 01:28:06;;;;;;;40.55;18.88;;;-0.40;99.90;;;;;;5044431;28;20531;-68
2022/03/05 01:30:31;;;;;;;41.22;18.90;;;-0.50;99.90;;;;;;5042363;28;20072;-67
2022/03/05 01:32:57;;;;;;;47.20;21.00;;;-0.50;99.90;;;;;;5045526;28;20401;-68
2022/03/05 01:35:22;;;;;;;41.13;19.88;;;-0.60;99.90;;;;;;5042049;28;20124;-67
2022/03/05 01:37:48;;;;;;;40.97;19.27;;;-0.60;99.90;;;;;;5047701;28;20032;-68
2022/03/05 01:40:14;;;;;;;36.60;17.95;;;-0.60;99.90;;;;;;5038127;28;20086;-67
2022/03/05 01:42:39;;;;;;;38.55;18.33;;;-0.70;99.90;;;;;;5045093;28;20049;-68
2022/03/05 01:45:05;;;;;;;43.22;19.80;;;-0.80;99.90;;;;;;5040542;28;20474;-68
2022/03/05 01:47:31;;;;;;;45.20;19.70;;;-0.80;99.90;;;;;;5039245;28;20033;-68
2022/03/05 01:49:56;;;;;;;47.78;21.25;;;-0.90;99.90;;;;;;5044695;28;20033;-67
2022/03/05 01:52:22;;;;;;;44.83;20.30;;;-0.90;99.90;;;;;;5039952;28;20582;-68
2022/03/05 01:54:48;;;;;;;42.50;19.00;;;-0.90;99.90;;;;;;5039696;28;20055;-67
2022/03/05 01:57:14;;;;;;;42.35;18.55;;;-0.90;99.90;;;;;;5042333;28;20061;-68
2022/03/05 01:59:39;;;;;;;43.22;19.67;;;-1.00;99.90;;;;;;5040849;28;20036;-68
2022/03/05 02:02:05;;;;;;;44.88;20.70;;;-1.00;99.90;;;;;;5039098;28;20029;-68
2022/03/05 02:04:31;;;;;;;43.35;20.65;;;-0.90;99.90;;;;;;5044565;28;20040;-68
2022/03/05 02:06:57;;;;;;;44.67;21.63;;;-0.90;99.90;;;;;;5030065;28;20026;-68
2022/03/05 02:09:22;;;;;;;46.47;20.60;;;-0.80;99.90;;;;;;5038888;28;20398;-68
2022/03/05 02:11:48;;;;;;;42.42;19.85;;;-0.70;99.90;;;;;;5040362;28;20032;-67
2022/03/05 02:14:18;;;;;;;45.67;20.85;;;-0.70;99.90;;;;;;5036824;28;20480;-67
2022/03/05 02:16:45;;;;;;;45.88;20.85;;;-0.60;99.90;;;;;;5034966;28;20227;-67
2022/03/05 02:19:11;;;;;;;45.33;21.10;;;-0.50;99.90;;;;;;5046455;28;20032;-67
2022/03/05 02:21:37;;;;;;;48.75;21.48;;;-0.40;99.90;;;;;;5035725;28;20037;-67
2022/03/05 02:24:03;;;;;;;48.38;20.70;;;-0.30;99.90;;;;;;5035801;28;20111;-67
2022/03/05 02:26:28;;;;;;;47.70;21.35;;;-0.30;99.90;;;;;;5043196;28;20495;-67
2022/03/05 02:28:54;;;;;;;47.38;21.40;;;-0.20;99.90;;;;;;5039617;28;20037;-67
2022/03/05 02:31:21;;;;;;;45.53;20.98;;;-0.20;99.90;;;;;;5044742;28;20393;-67
2022/03/05 02:33:46;;;;;;;45.55;20.75;;;-0.10;99.90;;;;;;5039336;28;20106;-67
2022/03/05 02:36:12;;;;;;;44.85;20.33;;;-0.10;99.90;;;;;;5039517;28;20037;-67
2022/03/05 02:38:38;;;;;;;42.55;20.42;;;-0.20;99.90;;;;;;5040542;28;20032;-67
2022/03/05 02:41:03;;;;;;;42.42;19.92;;;-0.30;99.90;;;;;;5038894;28;20460;-67
2022/03/05 02:43:29;;;;;;;45.80;20.83;;;-0.50;99.90;;;;;;5033103;28;20131;-67
2022/03/05 02:45:55;;;;;;;44.42;19.85;;;-0.60;99.90;;;;;;5041741;28;20068;-67
2022/03/05 02:48:21;;;;;;;42.50;19.05;;;-0.60;99.90;;;;;;5040348;28;20135;-67
2022/03/05 02:50:50;;;;;;;45.97;20.77;;;-0.60;99.90;;;;;;5042121;28;20134;-68
2022/03/05 02:53:16;;;;;;;41.38;19.40;;;-0.60;99.90;;;;;;5036260;28;20043;-67
2022/03/05 02:55:43;;;;;;;42.25;19.60;;;;;;;;;;5041296;28;20107;-67
2022/03/05 02:58:08;;;;;;;38.42;18.52;;;-0.80;99.90;;;;;;5040997;28;20045;-67
2022/03/05 03:00:35;;;;;;;47.60;21.35;;;-0.90;99.90;;;;;;5042669;28;20681;-68
2022/03/05 03:03:01;;;;;;;45.83;20.77;;;-0.90;99.90;;;;;;5037172;28;20508;-67
2022/03/05 03:05:26;;;;;;;47.67;19.90;;;-0.90;99.90;;;;;;5038155;28;20130;-67
2022/03/05 03:07:52;;;;;;;45.97;21.00;;;-0.80;99.90;;;;;;5044059;28;20036;-68
2022/03/05 03:10:18;;;;;;;42.15;20.33;;;-0.70;99.90;;;;;;5035014;28;20053;-68
2022/03/05 03:12:44;;;;;;;44.08;20.10;;;-0.70;99.90;;;;;;5035683;28;20037;-68
2022/03/05 03:15:13;;;;;;;43.70;20.83;;;-0.70;99.90;;;;;;5038934;28;20029;-67
2022/03/05 03:17:42;;;;;;;41.65;18.88;;;-0.80;99.90;;;;;;5034576;28;20033;-68
2022/03/05 03:20:09;;;;;;;43.50;20.25;;;-0.80;99.90;;;;;;5038486;28;20120;-67
2022/03/05 03:22:35;;;;;;;44.95;20.70;;;-0.90;99.90;;;;;;5034974;28;20283;-68
2022/03/05 03:25:00;;;;;;;47.75;20.50;;;-1.00;99.90;;;;;;5040132;28;20075;-67
2022/03/05 03:27:26;;;;;;;46.70;21.40;;;-0.90;99.90;;;;;;5039480;28;20085;-67
2022/03/05 03:29:51;;;;;;;42.20;19.30;;;-0.90;99.90;;;;;;5038570;28;20029;-68
2022/03/05 03:32:17;;;;;;;42.35;19.65;;;-0.90;99.90;;;;;;5037692;28;20447;-67
2022/03/05 03:34:42;;;;;;;42.92;19.85;;;-1.00;99.90;;;;;;5041271;28;20029;-67
2022/03/05 03:37:08;;;;;;;44.92;19.83;;;-1.00;99.90;;;;;;5038669;28;20025;-67
2022/03/05 03:39:33;;;;;;;45.50;20.48;;;-1.00;99.90;;;;;;5039999;28;20420;-67
2022/03/05 03:41:59;;;;;;;40.97;19.15;;;-1.00;99.90;;;;;;5036021;28;20029;-67
2022/03/05 03:44:25;;;;;;;42.05;19.75;;;-1.00;99.90;;;;;;5039452;28;20044;-67
2022/03/05 03:46:52;;;;;;;45.40;20.10;;;-1.10;99.90;;;;;;5039546;28;20077;-67
2022/03/05 03:49:18;;;;;;;40.83;19.00;;;-1.10;99.90;;;;;;5040414;28;20025;-67
2022/03/05 03:51:43;;;;;;;42.08;19.52;;;-1.10;99.90;;;;;;5036593;28;20024;-67
2022/03/05 03:54:09;;;;;;;43.45;20.08;;;-1.10;99.90;;;;;;5035707;28;20308;-67
2022/03/05 03:56:34;;;;;;;42.08;19.38;;;-1.10;99.90;;;;;;5043994;28;20778;-67
2022/03/05 03:59:00;;;;;;;38.90;19.73;;;-1.00;99.90;;;;;;5044943;28;20028;-67
2022/03/05 04:01:26;;;;;;;44.28;20.73;;;-0.90;99.90;;;;;;5040232;28;20064;-67
2022/03/05 04:03:51;;;;;;;39.28;19.30;;;-0.90;99.90;;;;;;5037595;28;20029;-67
2022/03/05 04:06:17;;;;;;;41.35;19.38;;;-1.00;99.90;;;;;;5039182;28;20029;-67
2022/03/05 04:08:42;;;;;;;42.97;20.27;;;-1.00;99.90;;;;;;5038406;28;20033;-68
2022/03/05 04:11:13;;;;;;;43.70;20.92;;;-1.10;99.90;;;;;;5041525;28;20387;-67
2022/03/05 04:13:38;;;;;;;48.90;20.70;;;-1.20;99.90;;;;;;5039309;28;20033;-67
2022/03/05 04:16:05;;;;;;;44.92;19.55;;;-1.20;99.90;;;;;;5034064;28;20453;-67
2022/03/05 04:18:31;;;;;;;38.60;18.30;;;-1.30;99.90;;;;;;5038056;28;20198;-67
2022/03/05 04:20:57;;;;;;;41.95;18.77;;;-1.30;99.90;;;;;;5043277;28;20574;-67
2022/03/05 04:23:23;;;;;;;42.47;18.98;;;-1.30;99.90;;;;;;5039173;28;20024;-67
2022/03/05 04:25:49;;;;;;;42.80;19.92;;;-1.40;99.90;;;;;;5043188;28;20504;-68
2022/03/05 04:28:14;;;;;;;44.38;20.05;;;-1.40;99.90;;;;;;5043486;28;20032;-68
2022/03/05 04:30:40;;;;;;;42.42;19.65;;;-1.40;99.90;;;;;;5040991;28;20059;-68
2022/03/05 04:33:06;;;;;;;42.40;19.58;;;-1.50;99.90;;;;;;5030614;28;20164;-67
2022/03/05 04:35:32;;;;;;;43.47;20.08;;;-1.50;99.90;;;;;;5041742;28;20404;-68
2022/03/05 04:37:57;;;;;;;43.03;19.20;;;-1.60;99.90;;;;;;5039260;28;20018;-67
2022/03/05 04:40:23;;;;;;;41.83;19.48;;;-1.60;99.90;;;;;;5041488;28;20024;-67
2022/03/05 04:42:49;;;;;;;44.53;20.92;;;-1.60;99.90;;;;;;5033393;28;20616;-69
2022/03/05 04:45:15;;;;;;;41.50;20.02;;;-1.70;99.90;;;;;;5036328;28;20518;-67
2022/03/05 04:47:41;;;;;;;42.58;20.25;;;-1.60;99.90;;;;;;5037666;28;20115;-67
2022/03/05 04:50:08;;;;;;;45.35;20.73;;;-1.60;99.90;;;;;;5041647;28;20024;-67
2022/03/05 04:52:34;;;;;;;49.20;20.75;;;-1.50;99.90;;;;;;5034826;28;20037;-67
2022/03/05 04:55:01;;;;;;;42.45;19.73;;;-1.50;99.90;;;;;;5041624;28;20037;-67
2022/03/05 04:57:26;;;;;;;42.90;19.75;;;-1.50;99.90;;;;;;5046359;28;20021;-67
2022/03/05 04:59:52;;;;;;;42.47;20.40;;;-1.50;99.90;;;;;;5033396;28;20051;-67
2022/03/05 05:02:18;;;;;;;42.17;19.02;;;-1.60;99.90;;;;;;5031772;28;20030;-67
2022/03/05 05:04:44;;;;;;;41.42;20.05;;;-1.60;99.90;;;;;;5042026;28;20033;-67
2022/03/05 05:07:09;;;;;;;43.90;20.27;;;-1.70;99.90;;;;;;5043040;28;20546;-67
2022/03/05 05:09:35;;;;;;;39.30;19.60;;;-1.60;99.90;;;;;;5033536;28;20049;-68
2022/03/05 05:12:01;;;;;;;46.55;21.02;;;-1.60;99.90;;;;;;5048136;28;20083;-67
2022/03/05 05:14:26;;;;;;;42.15;20.42;;;-1.60;99.90;;;;;;5043993;28;20311;-67
2022/03/05 05:16:52;;;;;;;46.05;20.63;;;-1.60;99.90;;;;;;5038678;28;20028;-67
2022/03/05 05:19:30;;;;;;;43.03;19.52;;;-1.60;99.90;;;;;;5041749;28;20087;-67
2022/03/05 05:21:58;;;;;;;45.63;19.35;;;-1.60;99.90;;;;;;5042694;28;20476;-67
2022/03/05 05:24:25;;;;;;;43.65;20.55;;;-1.60;99.90;;;;;;5040216;28;20037;-67
2022/03/05 05:26:52;;;;;;;43.25;20.20;;;-1.50;99.90;;;;;;5041916;28;20072;-67
2022/03/05 05:29:17;;;;;;;43.75;20.25;;;-1.50;99.90;;;;;;4349306;28;10001207;-68
2022/03/05 05:31:43;;;;;;;45.97;20.92;;;-1.50;99.90;;;;;;5061973;28;20044;-67
2022/03/05 05:34:09;;;;;;;43.13;19.83;;;-1.50;99.90;;;;;;5056524;28;20115;-67
2022/03/05 05:36:38;;;;;;;43.72;20.17;;;-1.40;99.90;;;;;;5060338;28;20083;-67
2022/03/05 05:39:07;;;;;;;42.13;20.00;;;-1.40;99.90;;;;;;5053570;28;20039;-68
2022/03/05 05:41:34;;;;;;;42.72;19.50;;;-1.40;99.90;;;;;;5053930;28;20033;-67
2022/03/05 05:43:59;;;;;;;44.15;20.15;;;-1.50;99.90;;;;;;5047305;28;20059;-68
2022/03/05 05:46:25;;;;;;;42.65;20.63;;;-1.40;99.90;;;;;;5064153;28;20404;-67
2022/03/05 05:48:51;;;;;;;44.20;20.15;;;-1.40;99.90;;;;;;5061644;28;20025;-68
2022/03/05 05:51:16;;;;;;;44.22;20.58;;;-1.40;99.90;;;;;;5064184;28;20488;-68
2022/03/05 05:53:42;;;;;;;48.40;21.88;;;-1.40;99.90;;;;;;5054150;28;20064;-67
2022/03/05 05:56:09;;;;;;;45.08;20.30;;;-1.30;99.90;;;;;;5051750;28;20036;-68
2022/03/05 05:58:35;;;;;;;45.00;21.02;;;-1.20;99.90;;;;;;5058830;28;20029;-67
2022/03/05 06:01:00;;;;;;;45.95;20.55;;;-1.10;99.90;;;;;;5060338;28;20090;-68
2022/03/05 06:03:26;;;;;;;46.42;20.85;;;-1.00;99.90;;;;;;5041060;28;20032;-67
2022/03/05 06:05:51;;;;;;;46.42;21.10;;;-0.90;99.90;;;;;;5042524;28;20040;-66
2022/03/05 06:08:17;;;;;;;45.95;21.10;;;-0.80;99.90;;;;;;5038672;28;20033;-67
2022/03/05 06:10:43;;;;;;;41.22;20.23;;;-0.80;99.90;;;;;;5041340;28;20451;-67
2022/03/05 06:13:09;;;;;;;40.17;18.55;;;-0.80;99.90;;;;;;5041534;28;20029;-67
2022/03/05 06:15:34;;;;;;;47.63;21.25;;;-0.90;99.90;;;;;;5042574;28;20028;-67
2022/03/05 06:18:00;;;;;;;44.55;21.13;;;-0.90;99.90;;;;;;5039917;28;20025;-67
2022/03/05 06:20:25;;;;;;;43.70;20.88;;;-0.80;99.90;;;;;;5039479;28;20051;-67
2022/03/05 06:22:51;;;;;;;45.38;21.38;;;-0.70;99.90;;;;;;5036791;28;20045;-68
2022/03/05 06:25:20;;;;;;;43.70;20.77;;;-0.60;99.90;;;;;;5041311;28;21724;-67
2022/03/05 06:27:46;;;;;;;48.10;21.88;;;-0.60;99.90;;;;;;5038024;28;20029;-67
2022/03/05 06:30:12;;;;;;;47.05;20.02;;;-0.60;99.90;;;;;;5034963;28;20037;-67
2022/03/05 06:32:38;;;;;;;44.42;20.60;;;-0.50;99.90;;;;;;5042735;28;20037;-68
2022/03/05 06:35:05;;;;;;;44.85;20.27;;;;;;;;;;5030455;28;20540;-68
2022/03/05 06:37:32;;;;;;;80.30;22.13;;;;;;;;;;5039535;28;20021;-68
2022/03/05 06:39:58;;;;;;;42.72;20.38;;;-0.30;99.90;;;;;;5037216;28;20067;-68
2022/03/05 06:42:24;;;;;;;47.88;21.60;;;-0.30;99.90;;;;;;5032123;28;20033;-67
2022/03/05 06:44:50;;;;;;;47.58;21.05;;;-0.30;99.90;;;;;;5040392;28;20409;-69
2022/03/05 06:47:16;;;;;;;47.63;21.05;;;-0.30;99.90;;;;;;5043740;28;20059;-72
2022/03/05 06:49:42;;;;;;;43.95;21.73;;;-0.30;99.90;;;;;;5045018;28;20037;-72
2022/03/05 06:52:10;;;;;;;48.80;21.83;;;-0.30;99.90;;;;;;5043529;28;20481;-72
2022/03/05 06:54:36;;;;;;;46.72;21.92;;;-0.20;99.90;;;;;;5043864;28;20036;-72
2022/03/05 06:57:02;;;;;;;44.10;20.60;;;-0.20;99.90;;;;;;5032204;28;20025;-73
2022/03/05 06:59:27;;;;;;;42.67;20.08;;;-0.10;99.90;;;;;;5036431;28;20031;-72
2022/03/05 07:01:53;;;;;;;50.13;21.50;;;0.00;99.90;;;;;;5043448;28;20033;-73
2022/03/05 07:04:19;;;;;;;47.60;22.00;;;0.00;99.90;;;;;;5043316;28;20025;-72
2022/03/05 07:06:44;;;;;;;42.55;20.02;;;0.10;99.90;;;;;;5037138;28;20024;-72
2022/03/05 07:09:10;;;;;;;43.58;20.80;;;0.10;99.90;;;;;;5027623;28;20104;-72
2022/03/05 07:11:35;;;;;;;46.72;21.30;;;0.10;99.90;;;;;;5040186;28;20523;-73
2022/03/05 07:14:01;;;;;;;42.00;20.83;;;0.10;99.90;;;;;;5044518;28;20140;-72
2022/03/05 07:16:27;;;;;;;46.75;21.55;;;0.10;99.90;;;;;;5046108;28;20151;-72
2022/03/05 07:18:52;;;;;;;44.92;21.30;;;0.20;99.90;;;;;;5043837;28;20141;-72
2022/03/05 07:21:18;;;;;;;45.92;21.45;;;0.30;99.90;;;;;;5041528;28;20112;-72
2022/03/05 07:23:44;;;;;;;46.28;22.23;;;0.30;99.90;;;;;;5045027;28;20116;-72
2022/03/05 07:26:09;;;;;;;47.83;22.35;;;0.30;99.90;;;;;;5045318;28;20621;-72
2022/03/05 07:28:35;;;;;;;47.00;21.73;;;0.20;99.90;;;;;;5046224;28;20041;-72
2022/03/05 07:31:00;;;;;;;46.08;21.80;;;0.20;99.90;;;;;;5045350;28;20039;-72
2022/03/05 07:33:26;;;;;;;45.03;20.25;;;0.10;99.90;;;;;;5044324;28;20048;-72
2022/03/05 07:35:52;;;;;;;47.13;22.13;;;0.00;99.90;;;;;;5045390;28;20116;-72
2022/03/05 07:38:18;;;;;;;45.63;20.90;;;0.00;99.90;;;;;;5041132;28;20024;-72
2022/03/05 07:40:44;;;;;;;52.47;22.85;;;0.00;99.90;;;;;;5045913;28;20035;-72
2022/03/05 07:43:12;;;;;;;45.40;21.17;;;0.00;99.90;;;;;;5044235;28;20057;-72
2022/03/05 07:45:38;;;;;;;44.45;20.02;;;0.00;99.90;;;;;;5046003;28;20048;-72
2022/03/05 07:48:04;;;;;;;40.88;20.02;;;-0.10;99.90;;;;;;5040842;28;20032;-72
2022/03/05 07:50:30;;;;;;;43.95;20.50;;;-0.10;99.90;;;;;;5045750;28;20040;-72
2022/03/05 07:52:55;;;;;;;43.60;20.80;;;-0.10;99.90;;;;;;5044309;28;20504;-72
2022/03/05 07:55:21;;;;;;;45.00;21.73;;;-0.10;99.90;;;;;;5044050;28;20086;-72
2022/03/05 07:57:47;;;;;;;46.78;21.90;;;0.00;99.90;;;;;;5043971;28;20057;-72
2022/03/05 08:00:13;;;;;;;46.90;21.83;;;0.00;99.90;;;;;;5046431;28;20138;-72
2022/03/05 08:02:39;;;;;;;49.47;22.90;;;0.20;99.90;;;;;;5044044;28;20064;-72
2022/03/05 08:05:05;;;;;;;50.75;23.80;;;0.30;99.90;;;;;;5041650;28;20029;-72
2022/03/05 08:07:31;;;;;;;49.40;23.40;;;0.50;99.90;;;;;;5043182;28;20064;-72
2022/03/05 08:09:57;;;;;;;48.63;22.48;;;0.70;99.90;;;;;;5034333;28;20112;-72
2022/03/05 08:12:22;;;;;;;49.80;22.77;;;0.80;99.90;;;;;;5024544;28;20109;-72
2022/03/05 08:14:49;;;;;;;42.58;21.80;;;1.00;99.90;;;;;;5033828;28;20033;-72
2022/03/05 08:17:14;;;;;;;47.03;22.55;;;1.10;99.90;;;;;;5025624;28;20044;-72
2022/03/05 08:19:41;;;;;;;45.40;21.55;;;1.20;99.90;;;;;;5032124;28;20246;-72
2022/03/05 08:22:07;;;;;;;50.63;21.27;;;1.30;99.90;;;;;;5042176;28;20029;-72
2022/03/05 08:24:32;;;;;;;46.20;22.08;;;1.40;99.90;;;;;;5037844;28;20078;-73
2022/03/05 08:26:58;;;;;;;44.88;22.00;;;1.50;99.90;;;;;;5046138;28;20033;-72
2022/03/05 08:29:24;;;;;;;44.83;21.00;;;1.70;99.90;;;;;;5045826;28;20536;-72
2022/03/05 08:31:50;;;;;;;45.17;22.45;;;1.80;99.90;;;;;;5060987;28;20028;-73
2022/03/05 08:34:16;;;;;;;46.70;22.60;;;1.90;99.90;;;;;;5042517;28;20031;-71
2022/03/05 08:36:42;;;;;;;44.58;22.23;;;2.10;99.90;;;;;;5045002;28;20227;-71
2022/03/05 08:39:07;;;;;;;41.30;21.58;;;2.20;99.90;;;;;;5045975;28;20060;-72
2022/03/05 08:41:33;;;;;;;44.38;21.75;;;2.30;99.90;;;;;;5044052;28;20030;-73
2022/03/05 08:43:59;;;;;;;43.53;21.65;;;2.50;99.90;;;;;;5047209;28;20052;-72
2022/03/05 08:46:24;;;;;;;44.40;21.40;;;2.60;99.90;;;;;;5047196;28;20056;-72
2022/03/05 08:48:50;;;;;;;39.80;20.90;;;2.60;99.90;;;;;;5048653;28;20123;-72
2022/03/05 08:51:16;;;;;;;44.88;21.80;;;2.70;99.90;;;;;;5045772;28;20029;-72
2022/03/05 08:53:41;;;;;;;42.00;21.25;;;2.80;99.90;;;;;;5029639;28;20033;-72
2022/03/05 08:56:07;;;;;;;44.83;21.77;;;2.90;99.90;;;;;;5048075;28;20037;-72
2022/03/05 08:58:33;;;;;;;44.00;21.75;;;2.90;99.90;;;;;;5046874;28;20507;-72
2022/03/05 09:01:01;;;;;;;44.03;21.42;;;3.10;99.90;;;;;;5048664;28;20083;-72
2022/03/05 09:03:27;;;;;;;44.97;21.90;;;3.10;99.90;;;;;;5045834;28;20033;-72
2022/03/05 09:05:53;;;;;;;42.65;21.33;;;3.30;99.90;;;;;;5047421;28;20378;-72
2022/03/05 09:08:19;;;;;;;45.25;21.27;;;3.40;99.90;;;;;;5048677;28;20028;-72
2022/03/05 09:10:45;;;;;;;42.00;21.67;;;3.40;99.90;;;;;;5044534;28;20124;-72
2022/03/05 09:13:11;;;;;;;43.88;21.55;;;3.70;99.90;;;;;;5040019;28;20473;-72
2022/03/05 09:15:37;;;;;;;45.38;21.30;;;3.80;99.90;;;;;;5038072;28;20058;-72
2022/03/05 09:18:04;;;;;;;44.78;21.73;;;3.80;99.90;;;;;;5046557;28;20533;-72
2022/03/05 09:20:30;;;;;;;42.75;22.60;;;3.90;99.90;;;;;;5047439;28;20443;-72
2022/03/05 09:22:56;;;;;;;41.90;21.48;;;4.00;99.90;;;;;;5040403;28;20112;-72
2022/03/05 09:25:22;;;;;;;41.83;21.15;;;4.10;99.90;;;;;;5047215;28;20040;-72
2022/03/05 09:27:47;;;;;;;38.33;20.77;;;4.20;99.90;;;;;;5047354;28;20075;-72
2022/03/05 09:30:13;;;;;;;41.08;21.25;;;4.30;99.90;;;;;;5047407;28;20052;-72
2022/03/05 09:32:39;;;;;;;40.92;21.80;;;4.40;99.90;;;;;;5042726;28;20036;-72
2022/03/05 09:35:05;;;;;;;41.25;20.92;;;4.40;99.90;;;;;;5042168;28;20045;-72
2022/03/05 09:37:33;;;;;;;44.92;21.30;;;4.40;99.90;;;;;;5028363;28;20045;-72
2022/03/05 09:39:59;;;;;;;37.00;20.60;;;4.50;99.90;;;;;;5046469;28;20033;-72
2022/03/05 09:42:25;;;;;;;40.00;20.73;;;4.50;99.90;;;;;;5042329;28;20096;-72
2022/03/05 09:44:51;;;;;;;39.85;20.85;;;4.60;99.90;;;;;;5046221;28;20025;-72
2022/03/05 09:47:18;;;;;;;40.50;22.02;;;4.70;99.90;;;;;;5047464;28;20028;-71
2022/03/05 09:49:44;;;;;;;40.17;21.27;;;4.80;99.90;;;;;;5045942;28;20025;-72
2022/03/05 09:52:10;;;;;;;40.60;21.92;;;4.80;99.90;;;;;;5035793;28;20587;-72
2022/03/05 09:54:36;;;;;;;41.20;21.65;;;4.80;99.90;;;;;;5038360;28;20078;-72
2022/03/05 09:57:09;;;;;;;42.92;22.55;;;4.70;99.90;;;;;;5048008;28;20021;-72
2022/03/05 09:59:34;;;;;;;41.33;21.87;;;4.70;99.90;;;;;;5043197;28;20029;-72
2022/03/05 10:02:00;;;;;;;40.33;21.85;;;4.70;99.90;;;;;;5044877;28;20605;-72
2022/03/05 10:04:26;;;;;;;37.72;20.25;;;4.80;99.90;;;;;;5037397;28;20100;-72
2022/03/05 10:07:11;;;;;;;39.25;21.05;;;4.90;99.90;;;;;;5046657;28;20037;-72
2022/03/05 10:09:38;;;;;;;39.42;22.17;;;4.90;99.90;;;;;;5045132;28;20033;-72
2022/03/05 10:12:32;;;;;;;38.88;20.58;;;5.00;99.90;;;;;;5028810;28;20037;-72
2022/03/05 10:15:18;;;;;;;45.45;22.17;;;5.10;99.90;;;;;;5040829;28;20239;-71
2022/03/05 10:17:56;;;;;;;40.65;22.17;;;5.10;99.90;;;;;;5046887;28;20033;-72
2022/03/05 10:20:24;;;;;;;39.50;21.02;;;5.20;99.90;;;;;;5045868;28;20452;-71
2022/03/05 10:22:57;;;;;;;41.15;21.38;;;5.20;99.90;;;;;;5044223;28;20028;-72
2022/03/05 10:25:31;;;;;;;38.97;20.55;;;5.30;99.90;;;;;;5044281;28;20477;-74
2022/03/05 10:28:09;;;;;;;37.92;21.33;;;5.30;99.90;;;;;;5039285;28;20317;-71
2022/03/05 10:30:38;;;;;;;40.22;21.55;;;5.30;99.90;;;;;;5042964;28;20039;-71
2022/03/05 10:33:04;;;;;;;38.22;21.05;;;5.30;99.90;;;;;;5040258;28;20033;-71
2022/03/05 10:35:30;;;;;;;39.78;20.85;;;5.30;99.90;;;;;;5045719;28;20025;-71
2022/03/05 10:37:56;;;;;;;40.63;21.35;;;5.30;99.90;;;;;;5046014;28;20021;-72
2022/03/05 10:40:32;;;;;;;37.85;21.20;;;5.40;99.90;;;;;;5038884;28;20476;-71
2022/03/05 10:43:04;;;;;;;37.83;20.85;;;5.40;99.90;;;;;;5034898;28;20561;-71
2022/03/05 10:45:29;;;;;;;39.35;21.42;;;5.50;99.90;;;;;;5028903;28;20051;-72
2022/03/05 10:47:58;;;;;;;40.72;22.02;;;5.60;99.90;;;;;;5045717;28;20683;-71
2022/03/05 10:50:28;;;;;;;39.35;21.75;;;5.60;99.90;;;;;;5045157;28;20048;-71
2022/03/05 10:53:01;;;;;;;39.72;21.67;;;5.70;99.90;;;;;;5044014;28;20461;-72
2022/03/05 10:55:35;;;;;;;39.15;21.30;;;5.70;99.90;;;;;;5043595;28;20052;-74
2022/03/05 10:58:13;;;;;;;42.50;22.15;;;5.70;99.90;;;;;;5044812;28;20104;-72
2022/03/05 11:00:40;;;;;;;35.58;19.75;;;5.70;99.90;;;;;;5045594;28;20029;-71
2022/03/05 11:03:06;;;;;;;37.35;20.15;;;5.70;99.90;;;;;;5040337;28;20033;-71
2022/03/05 11:05:32;;;;;;;37.35;19.95;;;5.80;99.90;;;;;;5043876;28;20040;-71
2022/03/05 11:07:59;;;;;;;37.20;20.38;;;5.90;99.90;;;;;;5030649;28;20025;-71
2022/03/05 11:10:29;;;;;;;36.67;20.73;;;5.90;99.90;;;;;;5036506;28;20505;-71
2022/03/05 11:13:00;;;;;;;32.67;18.90;;;6.00;99.90;;;;;;5043796;28;20466;-71
2022/03/05 11:15:27;;;;;;;32.47;18.27;;;6.10;99.90;;;;;;5041935;28;20078;-71
2022/03/05 11:17:53;;;;;;;36.40;19.23;;;6.10;99.90;;;;;;5043506;28;20044;-71
2022/03/05 11:20:19;;;;;;;35.17;19.10;;;6.20;99.90;;;;;;5046120;28;20044;-71
2022/03/05 11:22:49;;;;;;;35.10;19.23;;;6.30;99.90;;;;;;5032163;28;20033;-72
2022/03/05 11:25:24;;;;;;;31.77;18.58;;;6.40;99.90;;;;;;5032717;28;20041;-72
2022/03/05 11:27:59;;;;;;;32.65;18.58;;;6.50;99.90;;;;;;5043981;28;20071;-72
2022/03/05 11:30:26;;;;;;;27.00;15.93;;;6.60;99.90;;;;;;5043793;28;20044;-72
2022/03/05 11:32:51;;;;;;;28.73;16.92;;;6.70;99.90;;;;;;5035584;28;20033;-73
2022/03/05 11:35:22;;;;;;;27.13;15.73;;;6.70;99.90;;;;;;5040943;28;20091;-73
2022/03/05 11:37:50;;;;;;;25.88;14.60;;;6.80;99.90;;;;;;5035594;28;20017;-74
2022/03/05 11:40:38;;;;;;;27.38;15.90;;;7.00;99.90;;;;;;5042997;28;20025;-74
2022/03/05 11:43:18;;;;;;;24.52;14.57;;;7.00;99.80;;;;;;5039837;28;20083;-73
2022/03/05 11:46:03;;;;;;;24.30;14.65;;;7.00;97.20;;;;;;5045223;28;20460;-74
2022/03/05 11:48:34;;;;;;;25.75;14.35;;;7.20;97.30;;;;;;5042570;28;20025;-74
2022/03/05 11:51:08;;;;;;;23.20;12.68;;;7.20;96.90;;;;;;5044711;28;20479;-74
2022/03/05 11:53:34;;;;;;;23.10;14.00;;;7.30;94.30;;;;;;5034022;28;20090;-74
2022/03/05 11:56:21;;;;;;;21.13;11.90;;;7.40;93.50;;;;;;5043445;28;20673;-74
2022/03/05 11:58:47;;;;;;;27.40;16.23;;;7.60;92.40;;;;;;5045171;28;20032;-74
2022/03/05 12:01:32;;;;;;;28.73;16.35;;;7.70;96.00;;;;;;5045162;28;20025;-74
2022/03/05 12:04:03;;;;;;;22.92;12.95;;;7.90;95.40;;;;;;5039504;28;20295;-74
2022/03/05 12:06:41;;;;;;;24.98;15.63;;;8.20;97.50;;;;;;5044381;28;20033;-74
2022/03/05 12:09:07;;;;;;;25.25;15.40;;;8.30;93.70;;;;;;5044565;28;20102;-73
2022/03/05 12:11:35;;;;;;;26.00;15.20;;;8.40;97.50;;;;;;5050517;28;20024;-74
2022/03/05 12:14:01;;;;;;;27.17;16.00;;;8.60;91.70;;;;;;5052326;28;20033;-74
2022/03/05 12:16:29;;;;;;;28.10;16.13;;;8.70;91.70;;;;;;5047617;28;20032;-73
2022/03/05 12:18:57;;;;;;;25.50;15.80;;;8.60;93.00;;;;;;5047249;28;20032;-75
2022/03/05 12:21:33;;;;;;;28.67;15.85;;;8.60;92.90;;;;;;5041215;28;20057;-74
2022/03/05 12:24:06;;;;;;;27.25;15.77;;;8.60;91.90;;;;;;5041426;28;20075;-74
2022/03/05 12:26:42;;;;;;;26.10;16.10;;;8.50;92.30;;;;;;5048887;28;20522;-74
2022/03/05 12:29:09;;;;;;;26.27;15.57;;;8.40;92.20;;;;;;5047125;28;20040;-74